sensor_id;sensor_type;location;lat;lon;timestamp;temperature;humidity
32201;DHT22;18701;45.588;5.288;2023-06-22T00:01:11;23.10;99.90
32201;DHT22;18701;45.588;5.288;2023-06-22T00:03:37;23.20;99.90
32201;DHT22;18701;45.588;5.288;2023-06-22T00:06:03;23.00;99.90
32201;DHT22;18701;45.588;5.288;2023-06-22T00:08:28;23.00;99.90
32201;DHT22;18701;45.588;5.288;2023-06-22T00:10:54;22.90;99.90
32201;DHT22;18701;45.588;5.288;2023-06-22T00:13:19;23.00;99.90
32201;DHT22;18701;45.588;5.288;2023-06-22T00:15:45;22.40;99.90
32201;DHT22;18701;45.588;5.288;2023-06-22T00:18:11;22.80;99.90
32201;DHT22;18701;45.588;5.288;2023-06-22T00:20:38;22.40;99.90
32201;DHT22;18701;45.588;5.288;2023-06-22T00:23:06;22.70;99.90
32201;DHT22;18701;45.588;5.288;2023-06-22T00:25:40;22.80;99.90
32201;DHT22;18701;45.588;5.288;2023-06-22T00:28:06;22.90;99.90
32201;DHT22;18701;45.588;5.288;2023-06-22T00:30:33;22.90;99.90
32201;DHT22;18701;45.588;5.288;2023-06-22T00:32:59;22.90;99.90
32201;DHT22;18701;45.588;5.288;2023-06-22T00:35:26;23.00;99.90
32201;DHT22;18701;45.588;5.288;2023-06-22T00:37:56;22.70;99.90
32201;DHT22;18701;45.588;5.288;2023-06-22T00:40:31;22.90;99.90
32201;DHT22;18701;45.588;5.288;2023-06-22T00:42:57;22.90;99.90
32201;DHT22;18701;45.588;5.288;2023-06-22T00:45:24;22.80;99.90
32201;DHT22;18701;45.588;5.288;2023-06-22T00:47:55;22.80;99.90
32201;DHT22;18701;45.588;5.288;2023-06-22T00:50:24;22.70;99.90
32201;DHT22;18701;45.588;5.288;2023-06-22T00:52:55;22.70;99.90
32201;DHT22;18701;45.588;5.288;2023-06-22T00:55:25;22.70;99.90
32201;DHT22;18701;45.588;5.288;2023-06-22T00:57:51;22.60;99.90
32201;DHT22;18701;45.588;5.288;2023-06-22T01:00:22;22.60;99.90
32201;DHT22;18701;45.588;5.288;2023-06-22T01:02:47;22.70;99.90
32201;DHT22;18701;45.588;5.288;2023-06-22T01:05:21;22.70;99.90
32201;DHT22;18701;45.588;5.288;2023-06-22T01:07:50;22.60;99.90
32201;DHT22;18701;45.588;5.288;2023-06-22T01:18:42;22.30;99.90
32201;DHT22;18701;45.588;5.288;2023-06-22T01:21:12;22.40;99.90
32201;DHT22;18701;45.588;5.288;2023-06-22T01:29:01;22.50;99.90
32201;DHT22;18701;45.588;5.288;2023-06-22T01:31:29;22.40;99.90
32201;DHT22;18701;45.588;5.288;2023-06-22T01:34:05;22.20;99.90
32201;DHT22;18701;45.588;5.288;2023-06-22T01:36:33;22.40;99.90
32201;DHT22;18701;45.588;5.288;2023-06-22T01:39:00;22.30;99.90
32201;DHT22;18701;45.588;5.288;2023-06-22T01:41:29;22.30;99.90
32201;DHT22;18701;45.588;5.288;2023-06-22T01:43:56;22.30;99.90
32201;DHT22;18701;45.588;5.288;2023-06-22T01:46:22;22.30;99.90
32201;DHT22;18701;45.588;5.288;2023-06-22T01:48:49;22.20;99.90
32201;DHT22;18701;45.588;5.288;2023-06-22T01:51:16;22.10;99.90
32201;DHT22;18701;45.588;5.288;2023-06-22T01:53:41;22.00;99.90
32201;DHT22;18701;45.588;5.288;2023-06-22T01:56:08;21.90;99.90
32201;DHT22;18701;45.588;5.288;2023-06-22T01:58:34;21.90;99.90
32201;DHT22;18701;45.588;5.288;2023-06-22T02:01:12;21.90;99.90
32201;DHT22;18701;45.588;5.288;2023-06-22T02:03:51;21.80;99.90
32201;DHT22;18701;45.588;5.288;2023-06-22T02:06:23;21.90;99.90
32201;DHT22;18701;45.588;5.288;2023-06-22T02:08:55;21.90;99.90
32201;DHT22;18701;45.588;5.288;2023-06-22T02:11:22;22.00;99.90
32201;DHT22;18701;45.588;5.288;2023-06-22T02:13:48;21.90;99.90
32201;DHT22;18701;45.588;5.288;2023-06-22T02:16:15;21.90;99.90
32201;DHT22;18701;45.588;5.288;2023-06-22T02:18:48;21.80;99.90
32201;DHT22;18701;45.588;5.288;2023-06-22T02:21:18;21.90;99.90
32201;DHT22;18701;45.588;5.288;2023-06-22T02:23:44;21.80;99.90
32201;DHT22;18701;45.588;5.288;2023-06-22T02:26:10;21.80;99.90
32201;DHT22;18701;45.588;5.288;2023-06-22T02:28:35;21.80;99.90
32201;DHT22;18701;45.588;5.288;2023-06-22T02:31:01;21.70;99.90
32201;DHT22;18701;45.588;5.288;2023-06-22T02:33:27;21.70;99.90
32201;DHT22;18701;45.588;5.288;2023-06-22T02:35:52;21.60;99.90
32201;DHT22;18701;45.588;5.288;2023-06-22T02:38:18;21.50;99.90
32201;DHT22;18701;45.588;5.288;2023-06-22T02:40:45;21.60;99.90
32201;DHT22;18701;45.588;5.288;2023-06-22T02:43:10;21.70;99.90
32201;DHT22;18701;45.588;5.288;2023-06-22T02:45:36;21.50;99.90
32201;DHT22;18701;45.588;5.288;2023-06-22T02:48:01;21.60;99.90
32201;DHT22;18701;45.588;5.288;2023-06-22T02:50:27;21.70;99.90
32201;DHT22;18701;45.588;5.288;2023-06-22T02:52:53;21.70;99.90
32201;DHT22;18701;45.588;5.288;2023-06-22T02:55:18;21.60;99.90
32201;DHT22;18701;45.588;5.288;2023-06-22T02:57:44;21.60;99.90
32201;DHT22;18701;45.588;5.288;2023-06-22T03:00:12;21.70;99.90
32201;DHT22;18701;45.588;5.288;2023-06-22T03:02:47;21.60;99.90
32201;DHT22;18701;45.588;5.288;2023-06-22T03:05:14;21.60;99.90
32201;DHT22;18701;45.588;5.288;2023-06-22T03:07:44;21.70;99.90
32201;DHT22;18701;45.588;5.288;2023-06-22T03:10:11;21.70;99.90
32201;DHT22;18701;45.588;5.288;2023-06-22T03:12:37;21.70;99.90
32201;DHT22;18701;45.588;5.288;2023-06-22T03:15:08;21.60;99.90
32201;DHT22;18701;45.588;5.288;2023-06-22T03:17:35;21.60;99.90
32201;DHT22;18701;45.588;5.288;2023-06-22T03:20:02;21.80;99.90
32201;DHT22;18701;45.588;5.288;2023-06-22T03:22:34;21.70;99.90
32201;DHT22;18701;45.588;5.288;2023-06-22T03:25:01;21.50;99.90
32201;DHT22;18701;45.588;5.288;2023-06-22T03:27:26;21.50;99.90
32201;DHT22;18701;45.588;5.288;2023-06-22T03:29:52;21.40;99.90
32201;DHT22;18701;45.588;5.288;2023-06-22T03:32:18;21.40;99.90
32201;DHT22;18701;45.588;5.288;2023-06-22T03:34:43;21.30;99.90
32201;DHT22;18701;45.588;5.288;2023-06-22T03:37:13;21.30;99.90
32201;DHT22;18701;45.588;5.288;2023-06-22T03:39:39;21.30;99.90
32201;DHT22;18701;45.588;5.288;2023-06-22T03:42:05;21.30;99.90
32201;DHT22;18701;45.588;5.288;2023-06-22T03:44:31;21.40;99.90
32201;DHT22;18701;45.588;5.288;2023-06-22T03:46:59;21.50;99.90
32201;DHT22;18701;45.588;5.288;2023-06-22T03:49:24;21.50;99.90
32201;DHT22;18701;45.588;5.288;2023-06-22T03:51:50;21.50;99.90
32201;DHT22;18701;45.588;5.288;2023-06-22T03:54:16;21.50;99.90
32201;DHT22;18701;45.588;5.288;2023-06-22T03:56:41;21.60;99.90
32201;DHT22;18701;45.588;5.288;2023-06-22T03:59:07;21.60;99.90
32201;DHT22;18701;45.588;5.288;2023-06-22T04:01:32;21.70;99.90
32201;DHT22;18701;45.588;5.288;2023-06-22T04:03:58;21.60;99.90
32201;DHT22;18701;45.588;5.288;2023-06-22T04:06:23;21.40;99.90
32201;DHT22;18701;45.588;5.288;2023-06-22T04:08:49;21.30;99.90
32201;DHT22;18701;45.588;5.288;2023-06-22T04:11:17;21.40;99.90
32201;DHT22;18701;45.588;5.288;2023-06-22T04:13:43;21.30;99.90
32201;DHT22;18701;45.588;5.288;2023-06-22T04:16:09;21.40;99.90
32201;DHT22;18701;45.588;5.288;2023-06-22T04:18:34;21.60;99.90
32201;DHT22;18701;45.588;5.288;2023-06-22T04:21:00;21.40;99.90
32201;DHT22;18701;45.588;5.288;2023-06-22T04:23:25;21.60;99.90
32201;DHT22;18701;45.588;5.288;2023-06-22T04:25:51;21.60;99.90
32201;DHT22;18701;45.588;5.288;2023-06-22T04:28:17;21.60;99.90
32201;DHT22;18701;45.588;5.288;2023-06-22T04:30:42;21.70;99.90
32201;DHT22;18701;45.588;5.288;2023-06-22T04:33:15;21.60;99.90
32201;DHT22;18701;45.588;5.288;2023-06-22T04:35:41;21.70;99.90
32201;DHT22;18701;45.588;5.288;2023-06-22T04:38:07;21.80;99.90
32201;DHT22;18701;45.588;5.288;2023-06-22T04:40:33;21.80;99.90
32201;DHT22;18701;45.588;5.288;2023-06-22T04:42:58;21.90;99.90
32201;DHT22;18701;45.588;5.288;2023-06-22T04:45:28;21.90;99.90
32201;DHT22;18701;45.588;5.288;2023-06-22T04:47:54;21.90;99.90
32201;DHT22;18701;45.588;5.288;2023-06-22T04:50:20;22.00;99.90
32201;DHT22;18701;45.588;5.288;2023-06-22T04:52:47;22.00;99.90
32201;DHT22;18701;45.588;5.288;2023-06-22T04:55:13;21.90;99.90
32201;DHT22;18701;45.588;5.288;2023-06-22T04:57:44;22.00;99.90
32201;DHT22;18701;45.588;5.288;2023-06-22T05:00:15;22.00;99.90
32201;DHT22;18701;45.588;5.288;2023-06-22T05:02:44;22.00;99.90
32201;DHT22;18701;45.588;5.288;2023-06-22T05:05:11;22.10;99.90
32201;DHT22;18701;45.588;5.288;2023-06-22T05:07:39;22.10;99.90
32201;DHT22;18701;45.588;5.288;2023-06-22T05:10:09;22.20;99.90
32201;DHT22;18701;45.588;5.288;2023-06-22T05:12:36;22.10;99.90
32201;DHT22;18701;45.588;5.288;2023-06-22T05:15:01;21.90;99.90
32201;DHT22;18701;45.588;5.288;2023-06-22T05:17:27;22.00;99.90
32201;DHT22;18701;45.588;5.288;2023-06-22T05:19:53;21.90;99.90
32201;DHT22;18701;45.588;5.288;2023-06-22T05:22:19;22.10;99.90
32201;DHT22;18701;45.588;5.288;2023-06-22T05:24:45;22.00;99.90
32201;DHT22;18701;45.588;5.288;2023-06-22T05:27:11;22.10;99.90
32201;DHT22;18701;45.588;5.288;2023-06-22T05:29:37;22.00;99.90
32201;DHT22;18701;45.588;5.288;2023-06-22T05:32:03;22.00;99.90
32201;DHT22;18701;45.588;5.288;2023-06-22T05:34:29;22.00;99.90
32201;DHT22;18701;45.588;5.288;2023-06-22T05:36:54;22.00;99.90
32201;DHT22;18701;45.588;5.288;2023-06-22T05:39:20;22.00;99.90
32201;DHT22;18701;45.588;5.288;2023-06-22T05:41:46;22.10;99.90
32201;DHT22;18701;45.588;5.288;2023-06-22T05:44:12;22.20;99.90
32201;DHT22;18701;45.588;5.288;2023-06-22T05:46:41;22.10;99.90
32201;DHT22;18701;45.588;5.288;2023-06-22T05:49:10;22.00;99.90
32201;DHT22;18701;45.588;5.288;2023-06-22T05:51:36;22.00;99.90
32201;DHT22;18701;45.588;5.288;2023-06-22T05:54:02;22.10;99.90
32201;DHT22;18701;45.588;5.288;2023-06-22T05:56:27;22.00;99.90
32201;DHT22;18701;45.588;5.288;2023-06-22T05:58:53;22.10;99.90
32201;DHT22;18701;45.588;5.288;2023-06-22T06:01:19;22.00;99.90
32201;DHT22;18701;45.588;5.288;2023-06-22T06:03:44;22.00;99.90
32201;DHT22;18701;45.588;5.288;2023-06-22T06:06:10;22.20;99.90
32201;DHT22;18701;45.588;5.288;2023-06-22T06:08:39;22.30;99.90
32201;DHT22;18701;45.588;5.288;2023-06-22T06:11:05;22.30;99.90
32201;DHT22;18701;45.588;5.288;2023-06-22T06:13:30;22.50;99.90
32201;DHT22;18701;45.588;5.288;2023-06-22T06:15:56;22.50;99.90
32201;DHT22;18701;45.588;5.288;2023-06-22T06:18:22;22.50;99.90
32201;DHT22;18701;45.588;5.288;2023-06-22T06:20:48;22.50;99.90
32201;DHT22;18701;45.588;5.288;2023-06-22T06:23:13;22.40;99.90
32201;DHT22;18701;45.588;5.288;2023-06-22T06:25:39;22.20;99.90
32201;DHT22;18701;45.588;5.288;2023-06-22T06:28:05;22.10;99.90
32201;DHT22;18701;45.588;5.288;2023-06-22T06:30:30;22.10;99.90
32201;DHT22;18701;45.588;5.288;2023-06-22T06:32:56;22.00;99.90
32201;DHT22;18701;45.588;5.288;2023-06-22T06:35:22;21.90;99.90
32201;DHT22;18701;45.588;5.288;2023-06-22T06:37:49;21.80;99.90
32201;DHT22;18701;45.588;5.288;2023-06-22T06:40:15;22.10;99.90
32201;DHT22;18701;45.588;5.288;2023-06-22T06:42:43;22.20;99.90
32201;DHT22;18701;45.588;5.288;2023-06-22T06:45:16;22.40;99.90
32201;DHT22;18701;45.588;5.288;2023-06-22T06:47:42;22.40;99.90
32201;DHT22;18701;45.588;5.288;2023-06-22T06:50:08;22.40;99.90
32201;DHT22;18701;45.588;5.288;2023-06-22T06:52:35;22.20;99.90
32201;DHT22;18701;45.588;5.288;2023-06-22T06:55:01;21.90;99.90
32201;DHT22;18701;45.588;5.288;2023-06-22T06:57:28;22.00;99.90
32201;DHT22;18701;45.588;5.288;2023-06-22T06:59:57;22.00;99.90
32201;DHT22;18701;45.588;5.288;2023-06-22T07:02:23;22.10;99.90
32201;DHT22;18701;45.588;5.288;2023-06-22T07:04:49;22.30;99.90
32201;DHT22;18701;45.588;5.288;2023-06-22T07:07:15;22.60;99.90
32201;DHT22;18701;45.588;5.288;2023-06-22T07:09:41;22.90;99.90
32201;DHT22;18701;45.588;5.288;2023-06-22T07:12:07;22.90;99.90
32201;DHT22;18701;45.588;5.288;2023-06-22T07:14:32;23.00;99.90
32201;DHT22;18701;45.588;5.288;2023-06-22T07:16:58;23.10;99.90
32201;DHT22;18701;45.588;5.288;2023-06-22T07:19:25;23.30;99.90
32201;DHT22;18701;45.588;5.288;2023-06-22T07:21:52;23.50;99.90
32201;DHT22;18701;45.588;5.288;2023-06-22T07:24:17;23.70;99.90
32201;DHT22;18701;45.588;5.288;2023-06-22T07:26:45;23.80;99.90
32201;DHT22;18701;45.588;5.288;2023-06-22T07:29:11;23.80;99.90
32201;DHT22;18701;45.588;5.288;2023-06-22T07:31:37;23.90;99.90
32201;DHT22;18701;45.588;5.288;2023-06-22T07:34:03;23.80;99.90
32201;DHT22;18701;45.588;5.288;2023-06-22T07:36:29;23.90;99.90
32201;DHT22;18701;45.588;5.288;2023-06-22T07:38:55;23.70;99.90
32201;DHT22;18701;45.588;5.288;2023-06-22T07:41:21;23.60;99.90
32201;DHT22;18701;45.588;5.288;2023-06-22T07:43:46;23.60;99.90
32201;DHT22;18701;45.588;5.288;2023-06-22T07:46:12;23.70;99.90
32201;DHT22;18701;45.588;5.288;2023-06-22T07:48:38;23.90;99.90
32201;DHT22;18701;45.588;5.288;2023-06-22T07:51:04;24.20;99.90
32201;DHT22;18701;45.588;5.288;2023-06-22T07:53:31;24.30;99.90
32201;DHT22;18701;45.588;5.288;2023-06-22T07:55:57;24.10;99.90
32201;DHT22;18701;45.588;5.288;2023-06-22T07:58:22;24.10;99.90
32201;DHT22;18701;45.588;5.288;2023-06-22T08:00:48;24.00;99.90
32201;DHT22;18701;45.588;5.288;2023-06-22T08:03:15;24.00;99.90
32201;DHT22;18701;45.588;5.288;2023-06-22T08:05:40;24.00;99.90
32201;DHT22;18701;45.588;5.288;2023-06-22T08:08:06;24.10;99.90
32201;DHT22;18701;45.588;5.288;2023-06-22T08:10:32;24.20;99.90
32201;DHT22;18701;45.588;5.288;2023-06-22T08:12:57;24.20;99.90
32201;DHT22;18701;45.588;5.288;2023-06-22T08:15:25;24.30;99.90
32201;DHT22;18701;45.588;5.288;2023-06-22T08:17:51;24.40;99.90
32201;DHT22;18701;45.588;5.288;2023-06-22T08:20:17;24.50;99.90
32201;DHT22;18701;45.588;5.288;2023-06-22T08:22:44;24.50;99.90
32201;DHT22;18701;45.588;5.288;2023-06-22T08:25:10;24.70;99.90
32201;DHT22;18701;45.588;5.288;2023-06-22T08:27:39;24.80;99.90
32201;DHT22;18701;45.588;5.288;2023-06-22T08:30:06;24.80;99.90
32201;DHT22;18701;45.588;5.288;2023-06-22T08:32:32;24.90;99.90
32201;DHT22;18701;45.588;5.288;2023-06-22T08:34:58;25.00;99.90
32201;DHT22;18701;45.588;5.288;2023-06-22T08:37:24;25.00;99.90
32201;DHT22;18701;45.588;5.288;2023-06-22T08:39:59;25.00;99.90
32201;DHT22;18701;45.588;5.288;2023-06-22T08:42:24;25.10;99.90
32201;DHT22;18701;45.588;5.288;2023-06-22T08:44:50;25.20;99.90
32201;DHT22;18701;45.588;5.288;2023-06-22T08:47:16;25.40;99.90
32201;DHT22;18701;45.588;5.288;2023-06-22T08:49:42;25.70;99.90
32201;DHT22;18701;45.588;5.288;2023-06-22T08:52:07;25.90;99.90
32201;DHT22;18701;45.588;5.288;2023-06-22T08:54:33;26.00;99.90
32201;DHT22;18701;45.588;5.288;2023-06-22T08:57:00;26.20;99.90
32201;DHT22;18701;45.588;5.288;2023-06-22T08:59:26;26.20;99.90
32201;DHT22;18701;45.588;5.288;2023-06-22T09:01:51;26.20;99.90
32201;DHT22;18701;45.588;5.288;2023-06-22T09:04:17;26.30;99.90
32201;DHT22;18701;45.588;5.288;2023-06-22T09:06:42;26.70;99.90
32201;DHT22;18701;45.588;5.288;2023-06-22T09:09:13;26.50;99.90
32201;DHT22;18701;45.588;5.288;2023-06-22T09:11:39;26.50;99.90
32201;DHT22;18701;45.588;5.288;2023-06-22T09:14:05;26.60;99.90
32201;DHT22;18701;45.588;5.288;2023-06-22T09:16:32;26.60;99.90
32201;DHT22;18701;45.588;5.288;2023-06-22T09:18:57;26.60;99.90
32201;DHT22;18701;45.588;5.288;2023-06-22T09:21:23;26.60;99.90
32201;DHT22;18701;45.588;5.288;2023-06-22T09:23:49;26.60;99.90
32201;DHT22;18701;45.588;5.288;2023-06-22T09:26:19;26.50;99.90
32201;DHT22;18701;45.588;5.288;2023-06-22T09:28:45;26.50;99.90
32201;DHT22;18701;45.588;5.288;2023-06-22T09:31:11;26.50;99.90
32201;DHT22;18701;45.588;5.288;2023-06-22T09:33:37;26.60;99.90
32201;DHT22;18701;45.588;5.288;2023-06-22T09:36:06;26.70;99.90
32201;DHT22;18701;45.588;5.288;2023-06-22T09:38:36;26.60;99.90
32201;DHT22;18701;45.588;5.288;2023-06-22T09:41:02;26.60;99.90
32201;DHT22;18701;45.588;5.288;2023-06-22T09:43:28;26.70;99.90
32201;DHT22;18701;45.588;5.288;2023-06-22T09:45:54;26.70;99.90
32201;DHT22;18701;45.588;5.288;2023-06-22T09:48:19;26.80;99.90
32201;DHT22;18701;45.588;5.288;2023-06-22T09:50:45;26.70;99.90
32201;DHT22;18701;45.588;5.288;2023-06-22T09:53:10;26.80;99.90
32201;DHT22;18701;45.588;5.288;2023-06-22T09:55:36;26.80;99.90
32201;DHT22;18701;45.588;5.288;2023-06-22T09:58:04;26.80;99.90
32201;DHT22;18701;45.588;5.288;2023-06-22T10:00:29;26.70;99.90
32201;DHT22;18701;45.588;5.288;2023-06-22T10:02:55;26.60;99.90
32201;DHT22;18701;45.588;5.288;2023-06-22T10:05:21;26.50;99.90
32201;DHT22;18701;45.588;5.288;2023-06-22T10:07:47;26.40;99.90
32201;DHT22;18701;45.588;5.288;2023-06-22T10:10:13;26.50;99.90
32201;DHT22;18701;45.588;5.288;2023-06-22T10:12:43;26.60;99.90
32201;DHT22;18701;45.588;5.288;2023-06-22T10:15:10;26.60;99.90
32201;DHT22;18701;45.588;5.288;2023-06-22T10:17:35;26.70;99.90
32201;DHT22;18701;45.588;5.288;2023-06-22T10:20:01;26.80;99.90
32201;DHT22;18701;45.588;5.288;2023-06-22T10:22:37;26.60;99.90
32201;DHT22;18701;45.588;5.288;2023-06-22T10:25:03;26.50;99.90
32201;DHT22;18701;45.588;5.288;2023-06-22T10:27:29;26.60;99.90
32201;DHT22;18701;45.588;5.288;2023-06-22T10:29:54;26.50;99.90
32201;DHT22;18701;45.588;5.288;2023-06-22T10:32:20;26.40;99.90
32201;DHT22;18701;45.588;5.288;2023-06-22T10:34:45;26.60;99.90
32201;DHT22;18701;45.588;5.288;2023-06-22T10:37:11;26.70;99.90
32201;DHT22;18701;45.588;5.288;2023-06-22T10:39:36;26.80;99.90
32201;DHT22;18701;45.588;5.288;2023-06-22T10:42:02;26.90;99.90
32201;DHT22;18701;45.588;5.288;2023-06-22T10:44:28;27.10;99.90
32201;DHT22;18701;45.588;5.288;2023-06-22T10:46:53;27.10;99.90
32201;DHT22;18701;45.588;5.288;2023-06-22T10:49:19;27.20;99.90
32201;DHT22;18701;45.588;5.288;2023-06-22T10:51:44;27.30;99.90
32201;DHT22;18701;45.588;5.288;2023-06-22T10:54:10;27.20;99.90
32201;DHT22;18701;45.588;5.288;2023-06-22T10:56:35;26.90;99.90
32201;DHT22;18701;45.588;5.288;2023-06-22T10:59:01;26.90;99.90
32201;DHT22;18701;45.588;5.288;2023-06-22T11:01:27;26.90;99.90
32201;DHT22;18701;45.588;5.288;2023-06-22T11:03:53;27.00;99.90
32201;DHT22;18701;45.588;5.288;2023-06-22T11:06:18;26.90;99.90
32201;DHT22;18701;45.588;5.288;2023-06-22T11:08:45;27.00;99.90
32201;DHT22;18701;45.588;5.288;2023-06-22T11:11:10;27.00;99.90
32201;DHT22;18701;45.588;5.288;2023-06-22T11:13:36;27.10;99.90
32201;DHT22;18701;45.588;5.288;2023-06-22T11:16:02;27.20;99.90
32201;DHT22;18701;45.588;5.288;2023-06-22T11:18:27;27.00;99.90
32201;DHT22;18701;45.588;5.288;2023-06-22T11:20:53;26.80;99.90
32201;DHT22;18701;45.588;5.288;2023-06-22T11:23:18;26.80;99.90
32201;DHT22;18701;45.588;5.288;2023-06-22T11:25:44;26.90;99.90
32201;DHT22;18701;45.588;5.288;2023-06-22T11:28:11;26.80;99.90
32201;DHT22;18701;45.588;5.288;2023-06-22T11:30:37;26.80;99.90
32201;DHT22;18701;45.588;5.288;2023-06-22T11:33:02;27.10;99.90
32201;DHT22;18701;45.588;5.288;2023-06-22T11:35:28;27.10;99.90
32201;DHT22;18701;45.588;5.288;2023-06-22T11:37:53;26.80;99.90
32201;DHT22;18701;45.588;5.288;2023-06-22T11:40:19;26.80;99.90
32201;DHT22;18701;45.588;5.288;2023-06-22T11:42:45;26.90;99.90
32201;DHT22;18701;45.588;5.288;2023-06-22T11:45:11;26.90;99.90
32201;DHT22;18701;45.588;5.288;2023-06-22T11:47:36;26.90;99.90
32201;DHT22;18701;45.588;5.288;2023-06-22T11:50:02;27.00;99.90
32201;DHT22;18701;45.588;5.288;2023-06-22T11:52:28;26.90;99.90
32201;DHT22;18701;45.588;5.288;2023-06-22T11:54:54;26.70;99.90
32201;DHT22;18701;45.588;5.288;2023-06-22T11:57:19;26.80;99.90
32201;DHT22;18701;45.588;5.288;2023-06-22T11:59:45;26.40;99.90
32201;DHT22;18701;45.588;5.288;2023-06-22T12:02:10;26.30;99.90
32201;DHT22;18701;45.588;5.288;2023-06-22T12:04:36;26.20;99.90
32201;DHT22;18701;45.588;5.288;2023-06-22T12:07:02;26.20;99.90
32201;DHT22;18701;45.588;5.288;2023-06-22T12:09:27;26.00;99.90
32201;DHT22;18701;45.588;5.288;2023-06-22T12:11:53;25.90;99.90
32201;DHT22;18701;45.588;5.288;2023-06-22T12:14:19;26.00;99.90
32201;DHT22;18701;45.588;5.288;2023-06-22T12:16:44;25.80;99.90
32201;DHT22;18701;45.588;5.288;2023-06-22T12:19:11;25.60;99.90
32201;DHT22;18701;45.588;5.288;2023-06-22T12:21:37;25.60;99.90
32201;DHT22;18701;45.588;5.288;2023-06-22T12:24:03;25.60;99.90
32201;DHT22;18701;45.588;5.288;2023-06-22T12:26:28;25.40;99.90
32201;DHT22;18701;45.588;5.288;2023-06-22T12:28:54;25.50;99.90
32201;DHT22;18701;45.588;5.288;2023-06-22T12:31:20;25.20;99.90
32201;DHT22;18701;45.588;5.288;2023-06-22T12:33:45;25.40;99.90
32201;DHT22;18701;45.588;5.288;2023-06-22T12:36:11;25.40;99.90
32201;DHT22;18701;45.588;5.288;2023-06-22T12:38:36;25.50;99.90
32201;DHT22;18701;45.588;5.288;2023-06-22T12:41:04;25.30;99.90
32201;DHT22;18701;45.588;5.288;2023-06-22T12:43:29;25.30;99.90
32201;DHT22;18701;45.588;5.288;2023-06-22T12:45:55;25.30;99.90
32201;DHT22;18701;45.588;5.288;2023-06-22T12:48:22;25.30;99.90
32201;DHT22;18701;45.588;5.288;2023-06-22T12:50:48;24.90;99.90
32201;DHT22;18701;45.588;5.288;2023-06-22T12:53:13;24.90;99.90
32201;DHT22;18701;45.588;5.288;2023-06-22T12:55:39;24.90;99.90
32201;DHT22;18701;45.588;5.288;2023-06-22T12:58:04;24.90;99.90
32201;DHT22;18701;45.588;5.288;2023-06-22T13:00:30;24.80;99.90
32201;DHT22;18701;45.588;5.288;2023-06-22T13:02:56;24.80;99.90
32201;DHT22;18701;45.588;5.288;2023-06-22T13:05:21;24.40;99.90
32201;DHT22;18701;45.588;5.288;2023-06-22T13:07:47;24.30;99.90
32201;DHT22;18701;45.588;5.288;2023-06-22T13:10:12;24.10;99.90
32201;DHT22;18701;45.588;5.288;2023-06-22T13:12:38;24.00;99.90
32201;DHT22;18701;45.588;5.288;2023-06-22T13:15:04;23.80;99.90
32201;DHT22;18701;45.588;5.288;2023-06-22T13:17:30;23.20;99.90
32201;DHT22;18701;45.588;5.288;2023-06-22T13:19:55;23.20;99.90
32201;DHT22;18701;45.588;5.288;2023-06-22T13:24:56;23.20;99.90
32201;DHT22;18701;45.588;5.288;2023-06-22T13:27:22;23.10;99.90
32201;DHT22;18701;45.588;5.288;2023-06-22T13:29:48;23.00;99.90
32201;DHT22;18701;45.588;5.288;2023-06-22T13:32:13;22.60;99.90
32201;DHT22;18701;45.588;5.288;2023-06-22T13:34:39;20.70;99.90
32201;DHT22;18701;45.588;5.288;2023-06-22T13:37:04;19.40;99.90
32201;DHT22;18701;45.588;5.288;2023-06-22T13:39:30;19.40;99.90
32201;DHT22;18701;45.588;5.288;2023-06-22T13:41:57;19.30;99.90
32201;DHT22;18701;45.588;5.288;2023-06-22T13:44:22;19.20;99.90
32201;DHT22;18701;45.588;5.288;2023-06-22T13:46:48;19.60;99.90
32201;DHT22;18701;45.588;5.288;2023-06-22T13:49:14;19.80;99.90
32201;DHT22;18701;45.588;5.288;2023-06-22T13:51:40;19.80;99.90
32201;DHT22;18701;45.588;5.288;2023-06-22T13:54:06;19.90;99.90
32201;DHT22;18701;45.588;5.288;2023-06-22T13:56:32;19.80;99.90
32201;DHT22;18701;45.588;5.288;2023-06-22T13:58:58;19.70;99.90
32201;DHT22;18701;45.588;5.288;2023-06-22T14:01:23;19.50;99.90
32201;DHT22;18701;45.588;5.288;2023-06-22T14:03:49;19.30;99.90
32201;DHT22;18701;45.588;5.288;2023-06-22T14:06:14;19.10;99.90
32201;DHT22;18701;45.588;5.288;2023-06-22T14:08:40;19.10;99.90
32201;DHT22;18701;45.588;5.288;2023-06-22T14:11:05;19.20;99.90
32201;DHT22;18701;45.588;5.288;2023-06-22T14:13:31;19.30;99.90
32201;DHT22;18701;45.588;5.288;2023-06-22T14:15:57;19.20;99.90
32201;DHT22;18701;45.588;5.288;2023-06-22T14:18:23;19.20;99.90
32201;DHT22;18701;45.588;5.288;2023-06-22T14:20:49;19.00;99.90
32201;DHT22;18701;45.588;5.288;2023-06-22T14:23:14;19.10;99.90
32201;DHT22;18701;45.588;5.288;2023-06-22T14:25:40;19.10;99.90
32201;DHT22;18701;45.588;5.288;2023-06-22T14:28:09;19.10;99.90
32201;DHT22;18701;45.588;5.288;2023-06-22T14:30:34;19.00;99.90
32201;DHT22;18701;45.588;5.288;2023-06-22T14:33:00;19.20;99.90
32201;DHT22;18701;45.588;5.288;2023-06-22T14:35:25;19.40;99.90
32201;DHT22;18701;45.588;5.288;2023-06-22T14:37:51;19.50;99.90
32201;DHT22;18701;45.588;5.288;2023-06-22T14:40:16;19.60;99.90
32201;DHT22;18701;45.588;5.288;2023-06-22T14:42:42;19.40;99.90
32201;DHT22;18701;45.588;5.288;2023-06-22T14:45:08;19.40;99.90
32201;DHT22;18701;45.588;5.288;2023-06-22T14:47:33;19.40;99.90
32201;DHT22;18701;45.588;5.288;2023-06-22T14:49:59;19.40;99.90
32201;DHT22;18701;45.588;5.288;2023-06-22T14:52:28;19.20;99.90
32201;DHT22;18701;45.588;5.288;2023-06-22T14:54:53;18.80;99.90
32201;DHT22;18701;45.588;5.288;2023-06-22T14:57:19;18.80;99.90
32201;DHT22;18701;45.588;5.288;2023-06-22T14:59:46;18.80;99.90
32201;DHT22;18701;45.588;5.288;2023-06-22T15:02:12;18.90;99.90
32201;DHT22;18701;45.588;5.288;2023-06-22T15:04:38;19.20;99.90
32201;DHT22;18701;45.588;5.288;2023-06-22T15:07:04;19.40;99.90
32201;DHT22;18701;45.588;5.288;2023-06-22T15:09:30;19.40;99.90
32201;DHT22;18701;45.588;5.288;2023-06-22T15:11:55;19.60;99.90
32201;DHT22;18701;45.588;5.288;2023-06-22T15:14:21;19.60;99.90
32201;DHT22;18701;45.588;5.288;2023-06-22T15:16:47;19.40;99.90
32201;DHT22;18701;45.588;5.288;2023-06-22T15:19:12;19.50;99.90
32201;DHT22;18701;45.588;5.288;2023-06-22T15:21:38;19.30;99.90
32201;DHT22;18701;45.588;5.288;2023-06-22T15:24:04;19.40;99.90
32201;DHT22;18701;45.588;5.288;2023-06-22T15:26:30;19.60;99.90
32201;DHT22;18701;45.588;5.288;2023-06-22T15:28:55;19.60;99.90
32201;DHT22;18701;45.588;5.288;2023-06-22T15:31:21;19.90;99.90
32201;DHT22;18701;45.588;5.288;2023-06-22T15:33:46;19.90;99.90
32201;DHT22;18701;45.588;5.288;2023-06-22T15:36:12;19.40;99.90
32201;DHT22;18701;45.588;5.288;2023-06-22T15:38:37;20.00;99.90
32201;DHT22;18701;45.588;5.288;2023-06-22T15:41:03;20.20;99.90